Terminal Aerodrome Forecast
Issued by NWS

Home | Current Version | Previous Version | Graphics & Text | Print | Product List | Glossary On
Versions: 1 2 3 4 5 6 7 8 9 10 11 12 13 14 15 16 17 18
000
FTUS43 KGRB 240859 AAA
TAFAUW
TAF AMD
KAUW 240859Z 2409/2506 16008KT 6SM BR SCT004 BKN020
      TEMPO 2409/2412 2SM -SHRA BR BKN004
     FM241300 19009G15KT 6SM BR BKN008 OVC015
     FM241700 23010G17KT 6SM HZ BKN015 BKN035
     FM250100 27005KT P6SM SCT015 BKN150=

USA.gov is the U.S. government's official web portal to all federal, state and local government web resources and services.